Time;durP1;ratioP1;P1;durP2;ratioP2;P2;SDS_P1;SDS_P2;PMS_P1;PMS_P2;Temp;Humidity;BMP_temperature;BMP_pressure;BME280_temperature;BME280_humidity;BME280_pressure;Samples;Min_cycle;Max_cycle;Signal;HPM_P1;HPM_P2
2023/02/24 00:01:36;;;;;;;14.32;7.30;;;;;;;-5.79;46.95;99534.22;5042227;28;20041;-62
2023/02/24 00:04:07;;;;;;;19.90;8.30;;;;;;;-5.74;47.01;99536.75;5032543;28;20026;-62
2023/02/24 00:06:39;;;;;;;14.75;7.13;;;;;;;-5.78;47.05;99521.16;5046979;28;20138;-60
2023/02/24 00:09:07;;;;;;;13.93;7.15;;;;;;;-5.71;46.72;99529.72;5052750;28;20036;-60
2023/02/24 00:11:35;;;;;;;15.45;7.35;;;;;;;-5.70;46.09;99523.63;5052516;28;20021;-59
2023/02/24 00:14:00;;;;;;;15.00;7.90;;;;;;;-5.93;46.49;99485.81;5051872;28;20056;-60
2023/02/24 00:16:26;;;;;;;19.60;7.30;;;;;;;-5.73;46.15;99510.66;5052491;28;20052;-63
2023/02/24 00:18:52;;;;;;;17.60;7.03;;;;;;;-5.75;46.03;99509.81;5052522;28;20021;-62
2023/02/24 00:21:17;;;;;;;15.82;7.22;;;;;;;-5.81;46.54;99505.56;5040161;28;20033;-63
2023/02/24 00:23:45;;;;;;;15.35;7.20;;;;;;;-5.83;46.21;99499.53;5031994;28;20041;-62
2023/02/24 00:26:13;;;;;;;13.35;6.57;;;;;;;-5.81;46.52;99499.47;5032550;28;20029;-62
2023/02/24 00:28:39;;;;;;;13.73;6.57;;;;;;;-5.85;46.04;99503.91;5032543;28;20025;-62
2023/02/24 00:31:12;;;;;;;17.10;6.93;;;;;;;-6.00;46.16;99468.56;5047964;28;20056;-61
2023/02/24 00:33:38;;;;;;;16.15;7.13;;;;;;;-5.88;46.22;99503.97;5051973;28;20622;-63
2023/02/24 00:36:23;;;;;;;14.82;7.50;;;;;;;-5.89;46.44;99483.13;5052263;28;20064;-63
2023/02/24 00:38:57;;;;;;;16.00;7.28;;;;;;;-5.86;46.39;99486.56;5033327;28;20116;-64
2023/02/24 00:41:31;;;;;;;14.07;7.43;;;;;;;-5.89;46.19;99480.53;5032899;28;20099;-63
2023/02/24 00:44:05;;;;;;;14.88;7.30;;;;;;;-5.95;46.07;99476.28;5038685;28;20030;-62
2023/02/24 00:46:34;;;;;;;16.07;7.23;;;;;;;-6.03;46.32;99460.81;5039413;28;20029;-60
2023/02/24 00:49:04;;;;;;;15.48;6.80;;;;;;;-6.00;46.24;99468.56;5038830;28;20254;-64
2023/02/24 00:51:33;;;;;;;16.27;7.72;;;;;;;-6.03;46.28;99458.19;5037586;28;20460;-62
2023/02/24 00:53:59;;;;;;;16.00;7.15;;;;;;;-6.00;46.01;99458.13;5045116;28;20079;-62
2023/02/24 00:56:26;;;;;;;15.82;7.30;;;;;;;-6.06;46.27;99432.19;5057965;28;20040;-63
2023/02/24 00:58:54;;;;;;;16.63;7.57;;;;;;;-6.04;46.08;99438.25;5052326;28;20021;-62
2023/02/24 01:01:22;;;;;;;13.30;7.07;;;;;;;-5.96;46.41;99444.16;5038475;28;20048;-63
2023/02/24 01:03:48;;;;;;;18.27;7.25;;;;;;;-5.97;46.24;99436.34;5038287;28;20109;-62
2023/02/24 01:06:19;;;;;;;15.90;7.60;;;;;;;-5.95;46.27;99431.97;5038138;28;20041;-62
2023/02/24 01:08:48;;;;;;;16.13;7.78;;;;;;;-5.95;46.16;99440.66;5038681;28;20037;-62
2023/02/24 01:14:07;;;;;;;17.45;7.80;;;;;;;-5.84;46.17;99426.53;5037297;28;20040;-63
2023/02/24 01:16:33;;;;;;;17.85;8.38;;;;;;;-5.84;45.82;99423.94;5039229;28;20117;-62
2023/02/24 01:18:59;;;;;;;20.02;8.70;;;;;;;-5.87;46.34;99409.22;5037638;28;20083;-63
2023/02/24 01:21:25;;;;;;;17.50;8.73;;;;;;;-5.83;45.49;99410.00;5038125;28;20112;-63
2023/02/24 01:23:51;;;;;;;19.63;8.52;;;;;;;-5.85;45.77;99398.75;5038275;28;20033;-62
2023/02/24 01:26:18;;;;;;;18.00;8.00;;;;;;;-5.80;45.74;99402.13;5038207;28;20381;-62
2023/02/24 01:28:48;;;;;;;17.95;8.02;;;;;;;-5.82;45.29;99398.69;5038293;28;20100;-63
2023/02/24 01:31:17;;;;;;;18.30;8.25;;;;;;;-5.81;45.60;99389.97;5053955;28;20036;-62
2023/02/24 01:33:44;;;;;;;19.35;8.68;;;;;;;-5.82;45.34;99388.25;5037077;28;20470;-63
2023/02/24 01:36:14;;;;;;;17.98;8.32;;;;;;;-5.80;45.57;99387.34;5038398;28;20053;-63
2023/02/24 01:38:44;;;;;;;14.45;7.47;;;;;;;-5.78;45.28;99397.75;5056686;28;20109;-61
2023/02/24 01:41:16;;;;;;;20.60;8.43;;;;;;;-5.77;45.23;99378.59;5036639;28;20046;-59
2023/02/24 01:44:00;;;;;;;17.30;7.82;;;;;;;-5.97;45.12;99347.72;5053287;28;20128;-63
2023/02/24 01:46:34;;;;;;;17.17;7.53;;;;;;;-5.79;45.49;99372.53;5038049;28;20066;-62
2023/02/24 01:49:32;;;;;;;17.33;8.00;;;;;;;-5.80;45.20;99365.59;5038497;28;20286;-62
2023/02/24 01:52:21;;;;;;;15.90;7.18;;;;;;;-5.83;45.35;99365.69;5037912;28;20527;-62
2023/02/24 01:54:59;;;;;;;18.38;8.38;;;;;;;-5.89;45.43;99352.78;5033061;28;20026;-63
2023/02/24 01:57:29;;;;;;;18.60;8.40;;;;;;;-5.93;45.64;99345.03;5048394;28;20345;-62
2023/02/24 02:00:08;;;;;;;21.15;8.30;;;;;;;-5.91;45.29;99345.84;5032735;28;20040;-62
2023/02/24 02:02:34;;;;;;;16.92;7.65;;;;;;;-6.00;45.53;99338.22;5033987;28;20030;-63
2023/02/24 02:05:04;;;;;;;17.70;7.88;;;;;;;-6.02;45.70;99350.47;5035034;28;20437;-61
2023/02/24 02:07:30;;;;;;;17.38;8.05;;;;;;;-6.12;45.54;99333.28;5035645;28;20033;-63
2023/02/24 02:10:02;;;;;;;17.67;7.65;;;;;;;-6.12;45.87;99333.28;5035549;28;20044;-65
2023/02/24 02:12:35;;;;;;;17.92;8.23;;;;;;;-6.17;45.67;99338.59;5036561;28;20304;-63
2023/02/24 02:15:03;;;;;;;15.15;7.15;;;;;;;-6.24;46.05;99335.25;5054825;28;20055;-62
2023/02/24 02:17:42;;;;;;;16.20;7.93;;;;;;;-6.27;46.33;99331.84;5054502;28;20060;-61
2023/02/24 02:20:32;;;;;;;19.58;7.78;;;;;;;-6.28;46.42;99327.53;5054022;28;20059;-63
2023/02/24 02:23:29;;;;;;;16.27;6.65;;;;;;;-6.30;46.73;99324.94;5054892;28;20048;-64
2023/02/24 02:26:32;;;;;;;15.75;7.70;;;;;;;-6.34;46.15;99312.88;5054302;28;20033;-62
2023/02/24 02:29:12;;;;;;;17.38;7.47;;;;;;;-6.40;46.84;99305.19;5053264;28;20037;-62
2023/02/24 02:31:49;;;;;;;18.05;7.95;;;;;;;-6.64;46.34;99268.31;5054906;28;20064;-60
2023/02/24 02:34:46;;;;;;;19.30;7.40;;;;;;;-6.42;46.35;99291.34;5052798;28;20025;-57
2023/02/24 02:37:27;;;;;;;14.65;7.03;;;;;;;-6.44;46.51;99290.50;5054179;28;20047;-61
2023/02/24 02:40:08;;;;;;;14.48;7.18;;;;;;;-6.50;46.85;99287.13;5054128;28;20052;-63
2023/02/24 02:42:41;;;;;;;15.40;6.97;;;;;;;-6.50;46.79;99281.94;5054712;28;20044;-62
2023/02/24 02:45:16;;;;;;;14.77;7.13;;;;;;;-6.49;46.70;99283.66;5054262;28;20037;-60
2023/02/24 02:48:14;;;;;;;17.30;6.45;;;;;;;-6.38;46.32;99270.41;5053834;28;20068;-60
2023/02/24 02:50:53;;;;;;;15.95;7.72;;;;;;;-6.29;46.45;99261.53;5053938;28;20039;-57
2023/02/24 02:53:48;;;;;;;12.70;6.10;;;;;;;-6.17;46.56;99252.59;5053997;28;20029;-62
2023/02/24 02:56:39;;;;;;;13.02;6.45;;;;;;;-6.03;46.19;99254.06;5033594;28;20083;-62
2023/02/24 02:59:07;;;;;;;15.80;6.18;;;;;;;-6.02;46.38;99251.44;5033777;28;20061;-61
2023/02/24 03:01:37;;;;;;;13.77;6.47;;;;;;;-6.01;45.94;99237.50;5034254;28;20215;-63
2023/02/24 03:04:07;;;;;;;15.10;6.45;;;;;;;-5.97;46.27;99220.88;5033805;28;20030;-63
2023/02/24 03:06:38;;;;;;;14.18;6.95;;;;;;;-5.91;46.38;99222.44;5032803;28;20855;-62
2023/02/24 03:09:34;;;;;;;15.23;7.07;;;;;;;-5.84;46.38;99208.41;5032987;28;20029;-61
2023/02/24 03:12:07;;;;;;;11.30;6.05;;;;;;;-6.11;46.16;99171.69;5032419;28;20372;-61
2023/02/24 03:14:36;;;;;;;12.45;6.07;;;;;;;-5.94;46.01;99196.47;5044500;28;20032;-62
2023/02/24 03:17:11;;;;;;;14.00;6.28;;;;;;;-5.98;46.26;99198.28;5053269;28;20033;-62
2023/02/24 03:19:38;;;;;;;15.90;6.80;;;;;;;-5.98;46.67;99202.63;5053053;28;20033;-63
2023/02/24 03:22:14;;;;;;;16.35;6.75;;;;;;;-6.00;46.72;99184.44;5052203;28;20056;-62
2023/02/24 03:24:43;;;;;;;14.05;6.78;;;;;;;-6.09;46.78;99171.63;5053475;28;20045;-61
2023/02/24 03:27:30;;;;;;;17.45;7.75;;;;;;;-5.99;46.90;99187.91;5042604;28;20025;-62
2023/02/24 03:30:04;;;;;;;13.85;6.75;;;;;;;-6.03;46.86;99174.09;5033309;28;20037;-63
2023/02/24 03:32:49;;;;;;;13.63;6.85;;;;;;;-6.06;46.98;99162.00;5033978;28;20422;-63
2023/02/24 03:35:21;;;;;;;13.13;6.22;;;;;;;-6.04;46.75;99159.34;5032924;28;20162;-63
2023/02/24 03:37:48;;;;;;;18.10;6.53;;;;;;;-6.12;46.77;99143.91;5033421;28;20040;-63
2023/02/24 03:40:15;;;;;;;14.98;6.60;;;;;;;-6.06;47.06;99137.69;5033190;28;20088;-62
2023/02/24 03:42:47;;;;;;;15.63;6.65;;;;;;;-5.99;47.17;99133.16;5032387;28;20410;-63
2023/02/24 03:45:15;;;;;;;13.07;6.40;;;;;;;-5.99;46.64;99128.81;5032392;28;20098;-60
2023/02/24 03:47:41;;;;;;;13.82;6.82;;;;;;;-5.96;47.10;99120.03;5046317;28;20332;-62
2023/02/24 03:50:16;;;;;;;14.55;6.72;;;;;;;-5.93;46.70;99115.63;5050877;28;20025;-61
2023/02/24 03:52:55;;;;;;;14.77;6.57;;;;;;;-5.83;46.91;99118.00;5040462;28;20036;-62
2023/02/24 03:55:27;;;;;;;16.08;6.97;;;;;;;-5.87;46.96;99112.03;5032610;28;20078;-63
2023/02/24 03:58:09;;;;;;;14.93;6.57;;;;;;;-5.80;46.71;99112.69;5032700;28;20451;-61
2023/02/24 04:00:40;;;;;;;13.00;6.72;;;;;;;-5.88;46.79;99107.69;5032066;28;20033;-65
2023/02/24 04:03:22;;;;;;;14.13;7.40;;;;;;;-5.94;47.09;99100.88;5031548;28;20354;-61
2023/02/24 04:06:04;;;;;;;13.57;7.05;;;;;;;-5.96;46.86;99096.59;5032474;28;20065;-62
2023/02/24 04:08:40;;;;;;;12.90;6.57;;;;;;;-5.95;46.94;99101.78;5050442;28;20036;-63
2023/02/24 04:11:16;;;;;;;14.00;6.63;;;;;;;-5.94;46.89;99081.75;5052559;28;20048;-63
2023/02/24 04:13:58;;;;;;;15.00;7.10;;;;;;;-5.92;46.92;99085.19;5032571;28;20033;-63
2023/02/24 04:16:28;;;;;;;15.77;6.90;;;;;;;-5.95;46.84;99072.22;5032274;28;20112;-63
2023/02/24 04:19:02;;;;;;;14.73;6.38;;;;;;;-5.96;46.87;99074.00;5032025;28;20029;-60
2023/02/24 04:21:30;;;;;;;14.65;7.32;;;;;;;-6.03;47.05;99077.66;5030997;28;20463;-65
2023/02/24 04:23:57;;;;;;;15.98;6.93;;;;;;;-6.01;47.10;99072.44;5032037;28;20115;-60
2023/02/24 04:26:24;;;;;;;12.52;6.50;;;;;;;-6.04;46.89;99062.91;5031502;28;20047;-64
2023/02/24 04:28:51;;;;;;;13.60;6.28;;;;;;;-6.06;47.22;99049.06;5032692;28;20348;-62
2023/02/24 04:31:20;;;;;;;12.45;6.78;;;;;;;-6.04;47.06;99052.50;5033618;28;20029;-62
2023/02/24 04:33:49;;;;;;;11.77;6.22;;;;;;;-5.96;47.25;99058.34;5032816;28;20065;-62
2023/02/24 04:36:18;;;;;;;16.83;6.65;;;;;;;-5.96;46.91;99054.88;5038806;28;20517;-63
2023/02/24 04:38:44;;;;;;;14.35;6.72;;;;;;;-5.93;47.10;99060.00;5053218;28;20048;-62
2023/02/24 04:41:11;;;;;;;13.02;6.63;;;;;;;-5.99;47.27;99057.56;5051831;28;20033;-62
2023/02/24 04:43:37;;;;;;;14.05;7.00;;;;;;;-5.95;46.91;99060.06;5052094;28;20127;-63
2023/02/24 04:46:06;;;;;;;13.90;6.38;;;;;;;-6.07;46.90;99029.13;5052099;28;20041;-62
2023/02/24 04:48:33;;;;;;;16.20;7.53;;;;;;;-5.89;47.11;99055.59;5047475;28;20021;-63
2023/02/24 04:51:05;;;;;;;15.57;6.40;;;;;;;-5.92;47.09;99046.94;5030738;28;20038;-62
2023/02/24 04:53:31;;;;;;;13.20;6.35;;;;;;;-5.82;46.79;99049.31;5031117;28;20045;-61
2023/02/24 04:56:07;;;;;;;14.48;6.50;;;;;;;-5.76;47.08;99052.63;5032174;28;20036;-63
2023/02/24 04:58:37;;;;;;;16.13;6.63;;;;;;;-5.76;46.82;99049.16;5033011;28;20040;-64
2023/02/24 05:01:11;;;;;;;13.43;6.93;;;;;;;-5.73;47.10;99038.66;5032095;28;20029;-64
2023/02/24 05:03:41;;;;;;;14.83;6.83;;;;;;;-5.68;47.00;99039.38;5044111;28;20079;-64
2023/02/24 05:06:12;;;;;;;13.15;6.18;;;;;;;-5.59;46.44;99040.03;5051306;28;20097;-64
2023/02/24 05:08:38;;;;;;;14.82;6.55;;;;;;;-5.59;46.55;99024.38;5044064;28;20150;-63
2023/02/24 05:11:04;;;;;;;13.13;6.43;;;;;;;-5.56;46.59;99026.88;5031857;28;20112;-64
2023/02/24 05:13:31;;;;;;;17.33;7.20;;;;;;;-5.53;46.31;99025.06;5031689;28;20068;-64
2023/02/24 05:16:06;;;;;;;16.88;7.20;;;;;;;-5.54;46.67;99006.88;5031959;28;20033;-63
2023/02/24 05:19:47;;;;;;;15.50;7.07;;;;;;;-5.52;46.74;98989.41;5031962;28;20040;-64
2023/02/24 05:21:34;;;;;;;16.30;7.60;;;;;;;-5.44;46.46;98997.00;5029854;28;20049;-64
2023/02/24 05:24:05;;;;;;;15.60;7.22;;;;;;;-5.35;46.08;99002.81;5030805;28;20424;-63
2023/02/24 05:26:34;;;;;;;13.07;6.70;;;;;;;-5.28;46.12;98997.44;5031408;28;20045;-63
2023/02/24 05:29:01;;;;;;;17.00;7.78;;;;;;;-5.23;45.90;99003.38;5043777;28;20055;-61
2023/02/24 05:31:29;;;;;;;16.02;7.70;;;;;;;-5.28;45.96;98979.16;5055519;28;20040;-62
2023/02/24 05:34:06;;;;;;;14.30;7.38;;;;;;;-5.12;45.98;98983.00;5055105;28;20102;-60
2023/02/24 05:36:37;;;;;;;17.88;7.90;;;;;;;-5.24;45.87;98952.06;5054416;28;20142;-62
2023/02/24 05:39:06;;;;;;;14.57;6.70;;;;;;;-4.98;45.95;98973.91;5054542;28;20072;-64
2023/02/24 05:41:37;;;;;;;16.38;7.95;;;;;;;-4.94;45.84;98973.78;5054200;28;20106;-64
2023/02/24 05:44:10;;;;;;;17.98;7.97;;;;;;;-4.88;45.57;98964.06;5054915;28;20029;-62
2023/02/24 05:46:38;;;;;;;13.52;6.82;;;;;;;-4.74;46.04;98963.63;5052047;28;20067;-63
2023/02/24 05:49:08;;;;;;;14.43;7.03;;;;;;;-4.66;46.00;98965.06;5054254;28;20116;-63
2023/02/24 05:51:35;;;;;;;15.57;7.88;;;;;;;-4.58;45.92;98966.59;5054516;28;20124;-63
2023/02/24 05:54:07;;;;;;;17.40;8.05;;;;;;;-4.59;46.00;98963.09;5036830;28;20033;-63
2023/02/24 05:56:34;;;;;;;19.80;8.40;;;;;;;-4.63;45.64;98943.22;5035130;28;20125;-62
2023/02/24 05:59:02;;;;;;;15.32;7.72;;;;;;;-4.52;45.32;98948.94;5034871;28;20041;-63
2023/02/24 06:01:30;;;;;;;19.30;7.47;;;;;;;-4.56;46.16;98947.34;5034728;28;20033;-63
2023/02/24 06:04:04;;;;;;;16.80;8.25;;;;;;;-4.49;45.64;98941.00;5040878;28;20029;-60
2023/02/24 06:06:34;;;;;;;14.93;7.68;;;;;;;-4.39;45.84;98940.69;5054810;28;20128;-65
2023/02/24 06:09:06;;;;;;;16.48;7.68;;;;;;;-4.33;45.68;98938.72;5054136;28;20090;-56
2023/02/24 06:11:33;;;;;;;17.00;8.23;;;;;;;-4.32;45.91;98927.38;5054064;28;20044;-62
2023/02/24 06:13:58;;;;;;;18.70;8.15;;;;;;;-4.21;46.10;98934.00;5054740;28;20037;-62
2023/02/24 06:16:24;;;;;;;18.00;8.45;;;;;;;-4.18;46.25;98926.88;5053569;28;20028;-63
2023/02/24 06:18:50;;;;;;;20.10;8.90;;;;;;;-4.18;45.89;98918.22;5041421;28;20025;-64
2023/02/24 06:21:16;;;;;;;20.60;7.82;;;;;;;-4.10;45.66;98923.16;5049100;28;20056;-63
2023/02/24 06:23:42;;;;;;;15.75;8.35;;;;;;;-4.12;46.67;98911.91;5051383;28;20639;-63
2023/02/24 06:26:11;;;;;;;16.13;8.05;;;;;;;-4.08;47.16;98918.75;5034198;28;20116;-64
2023/02/24 06:28:39;;;;;;;20.55;8.95;;;;;;;-4.00;47.04;98931.53;5034276;28;20029;-63
2023/02/24 06:31:05;;;;;;;18.23;8.35;;;;;;;-3.96;47.09;98913.06;5034512;28;20144;-64
2023/02/24 06:33:33;;;;;;;18.85;8.95;;;;;;;-4.00;47.98;98901.00;5034847;28;20036;-64
2023/02/24 06:35:59;;;;;;;16.63;8.68;;;;;;;-3.92;47.92;98908.59;5032890;28;20499;-62
2023/02/24 06:38:25;;;;;;;17.38;8.90;;;;;;;-3.97;48.33;98900.91;5033858;28;20042;-63
2023/02/24 06:40:51;;;;;;;22.15;8.98;;;;;;;-3.98;48.72;98893.97;5034254;28;20045;-64
2023/02/24 06:43:18;;;;;;;20.98;9.60;;;;;;;-4.01;48.93;98891.47;5034449;28;20475;-64
2023/02/24 06:45:44;;;;;;;17.75;8.77;;;;;;;-3.99;49.04;98879.19;5033961;28;20029;-65
2023/02/24 06:48:10;;;;;;;19.13;9.07;;;;;;;-3.95;49.52;98885.16;5052772;28;20043;-63
2023/02/24 06:50:36;;;;;;;29.65;9.65;;;;;;;-3.94;49.87;98873.81;5053996;28;20033;-63
2023/02/24 06:53:02;;;;;;;25.98;9.27;;;;;;;-4.03;50.07;98859.28;5050426;28;20100;-64
2023/02/24 06:55:28;;;;;;;21.63;10.07;;;;;;;-4.16;49.79;98837.09;5052891;28;20451;-63
2023/02/24 06:57:56;;;;;;;17.27;8.85;;;;;;;-3.94;50.67;98874.63;5035936;28;20029;-62
2023/02/24 07:00:38;;;;;;;22.35;9.88;;;;;;;-3.89;51.04;98864.84;5032708;28;20060;-62
2023/02/24 07:03:15;;;;;;;21.40;9.73;;;;;;;-3.89;51.31;98854.38;5033074;28;20092;-60
2023/02/24 07:05:42;;;;;;;21.35;9.38;;;;;;;-3.90;50.84;98851.84;5037365;28;20029;-56
2023/02/24 07:08:08;;;;;;;18.55;9.60;;;;;;;-3.90;51.76;98844.84;5050179;28;20452;-61
2023/02/24 07:10:33;;;;;;;22.63;9.90;;;;;;;-3.92;51.92;98833.59;5051090;28;20053;-61
2023/02/24 07:12:59;;;;;;;18.27;10.00;;;;;;;-3.93;52.23;98839.72;5051183;28;20174;-62
2023/02/24 07:15:24;;;;;;;19.77;9.52;;;;;;;-3.89;52.15;98832.63;5051237;28;20406;-60
2023/02/24 07:17:53;;;;;;;20.25;9.57;;;;;;;-4.12;52.26;98796.88;5051498;28;20526;-60
2023/02/24 07:20:24;;;;;;;23.88;9.85;;;;;;;-3.88;52.59;98834.34;5051147;28;20029;-58
2023/02/24 07:22:50;;;;;;;22.85;10.10;;;;;;;-3.91;52.36;98819.59;5052934;28;20037;-61
2023/02/24 07:25:31;;;;;;;20.17;10.10;;;;;;;-4.10;52.49;98790.69;5048148;28;20033;-60
2023/02/24 07:28:00;;;;;;;23.75;9.90;;;;;;;-3.92;52.55;98820.50;5033491;28;20454;-62
2023/02/24 07:30:32;;;;;;;21.70;9.40;;;;;;;-4.11;53.20;98782.88;5033331;28;20029;-60
2023/02/24 07:32:59;;;;;;;20.67;9.88;;;;;;;-3.91;52.88;98819.59;5034232;28;20038;-61
2023/02/24 07:35:25;;;;;;;27.40;10.38;;;;;;;-3.91;53.53;98817.00;5033545;28;20556;-62
2023/02/24 07:37:51;;;;;;;23.38;10.35;;;;;;;-3.89;53.48;98817.78;5031726;28;20132;-61
2023/02/24 07:40:20;;;;;;;21.52;9.82;;;;;;;-3.88;53.10;98805.56;5031702;28;20172;-61
2023/02/24 07:42:47;;;;;;;23.88;10.25;;;;;;;-3.80;53.72;98807.91;5033372;28;20037;-60
2023/02/24 07:45:13;;;;;;;21.70;11.15;;;;;;;-3.71;53.58;98801.47;5033775;28;20139;-59
2023/02/24 07:47:39;;;;;;;21.52;9.98;;;;;;;-3.61;53.44;98797.56;5039239;28;20050;-60
2023/02/24 07:50:12;;;;;;;18.23;9.38;;;;;;;-3.50;53.34;98797.16;5052590;28;20375;-62
2023/02/24 07:52:40;;;;;;;23.85;9.48;;;;;;;-3.67;53.32;98766.41;5041503;28;20037;-62
2023/02/24 07:55:07;;;;;;;21.33;9.68;;;;;;;-3.41;53.13;98796.78;5030190;28;20045;-60
2023/02/24 07:57:36;;;;;;;22.33;10.05;;;;;;;-3.32;53.45;98796.41;5015670;28;20045;-60
2023/02/24 08:00:18;;;;;;;27.52;11.63;;;;;;;-3.29;53.35;98787.56;5037264;28;20045;-62
2023/02/24 08:02:48;;;;;;;18.63;10.05;;;;;;;-3.20;53.08;98787.22;5033784;28;20040;-62
2023/02/24 08:05:16;;;;;;;19.25;10.57;;;;;;;-3.17;53.35;98794.06;5041474;28;20060;-59
2023/02/24 08:07:48;;;;;;;23.38;10.73;;;;;;;-3.14;53.45;98780.84;5031732;28;20124;-60
2023/02/24 08:10:24;;;;;;;20.63;10.43;;;;;;;-3.34;53.32;98748.53;5031760;28;20321;-62
2023/02/24 08:12:55;;;;;;;21.67;9.82;;;;;;;-3.11;53.70;98772.03;5032300;28;20091;-60
2023/02/24 08:15:25;;;;;;;20.13;9.95;;;;;;;-3.01;53.59;98785.59;5032390;28;20029;-61
2023/02/24 08:17:59;;;;;;;21.88;10.90;;;;;;;-3.04;54.06;98766.47;5031851;28;20091;-60
2023/02/24 08:20:34;;;;;;;20.20;10.45;;;;;;;-2.94;53.73;98771.31;5042333;28;20037;-62
2023/02/24 08:23:00;;;;;;;23.55;10.45;;;;;;;-2.99;53.79;98768.06;5050326;28;20037;-63
2023/02/24 08:25:34;;;;;;;19.98;10.52;;;;;;;-2.95;54.36;98753.91;5031365;28;20036;-61
2023/02/24 08:28:04;;;;;;;25.52;11.55;;;;;;;-2.82;54.48;98765.56;5033017;28;20034;-62
2023/02/24 08:30:37;;;;;;;25.55;11.02;;;;;;;-2.75;54.40;98763.56;5046889;28;20447;-60
2023/02/24 08:33:03;;;;;;;23.67;11.30;;;;;;;-2.65;54.20;98761.38;5051200;28;20048;-60
2023/02/24 08:35:34;;;;;;;21.05;10.48;;;;;;;-2.58;54.27;98761.94;5050853;28;20060;-62
2023/02/24 08:38:15;;;;;;;22.05;10.70;;;;;;;-2.47;54.27;98749.22;5051599;28;20048;-61
2023/02/24 08:40:50;;;;;;;24.77;11.45;;;;;;;-2.58;54.37;98717.41;5051687;28;20058;-60
2023/02/24 08:45:59;;;;;;;24.90;10.80;;;;;;;-2.39;54.20;98741.88;5041847;28;20025;-63
2023/02/24 08:48:41;;;;;;;22.67;10.82;;;;;;;-2.31;53.87;98733.66;5031470;28;20038;-61
2023/02/24 08:51:29;;;;;;;19.35;10.35;;;;;;;-2.25;54.02;98730.75;5032022;28;20029;-63
2023/02/24 08:54:15;;;;;;;22.27;11.20;;;;;;;-2.17;53.95;98730.41;5031647;28;20048;-60
2023/02/24 08:56:47;;;;;;;22.05;11.18;;;;;;;-2.18;53.36;98700.69;5032998;28;20117;-60
2023/02/24 08:59:36;;;;;;;20.00;10.90;;;;;;;-1.90;53.05;98733.53;5032014;28;20547;-61
2023/02/24 09:02:22;;;;;;;21.63;11.20;;;;;;;-1.84;53.21;98729.75;5032248;28;20037;-59
2023/02/24 09:04:51;;;;;;;26.52;11.68;;;;;;;-1.67;53.06;98734.22;5035582;28;20049;-60
2023/02/24 09:07:37;;;;;;;20.55;10.10;;;;;;;-1.50;53.06;98737.78;5055518;28;20471;-62
2023/02/24 09:10:16;;;;;;;20.42;11.07;;;;;;;-1.52;53.40;98737.00;5055771;28;20029;-64
2023/02/24 09:12:43;;;;;;;21.98;11.38;;;;;;;-1.52;52.50;98737.00;5055644;28;20367;-61
2023/02/24 09:15:10;;;;;;;23.17;11.75;;;;;;;-1.52;53.22;98726.50;5054691;28;20044;-63
2023/02/24 09:17:39;;;;;;;28.67;12.77;;;;;;;-1.74;53.25;98691.66;5055629;28;20029;-59
2023/02/24 09:22:59;;;;;;;23.92;11.93;;;;;;;-1.40;53.28;98710.16;5055630;28;20090;-61
2023/02/24 09:25:39;;;;;;;25.98;11.40;;;;;;;-1.42;53.68;98721.66;5053415;28;20044;-62
2023/02/24 09:28:15;;;;;;;23.40;10.88;;;;;;;-1.36;53.66;98705.59;5054198;28;20052;-63
2023/02/24 09:30:49;;;;;;;20.50;11.02;;;;;;;-1.37;53.01;98714.41;5055695;28;20360;-61
2023/02/24 09:33:17;;;;;;;23.67;11.63;;;;;;;-1.41;52.86;98710.22;5055299;28;20418;-62
2023/02/24 09:36:08;;;;;;;21.60;11.32;;;;;;;-1.47;53.35;98709.59;5054819;28;20132;-60
2023/02/24 09:41:31;;;;;;;21.42;11.18;;;;;;;-1.31;53.55;98695.72;5037073;28;20694;-62
2023/02/24 09:44:06;;;;;;;21.40;11.27;;;;;;;-1.49;53.38;98651.09;5040095;28;20163;-62
2023/02/24 09:46:52;;;;;;;20.88;11.70;;;;;;;-1.05;53.02;98686.50;5055819;28;20041;-62
2023/02/24 09:49:22;;;;;;;20.98;10.82;;;;;;;-1.02;52.86;98682.88;5053701;28;20044;-60
2023/02/24 09:51:59;;;;;;;20.33;10.07;;;;;;;-0.95;52.69;98675.56;5051599;28;20043;-62
2023/02/24 09:54:34;;;;;;;22.08;11.43;;;;;;;-0.79;52.95;98668.53;5037944;28;20092;-59
2023/02/24 09:57:15;;;;;;;30.05;12.98;;;;;;;-0.55;52.36;98670.81;5055154;28;20035;-61
2023/02/24 10:00:42;;;;;;;25.38;12.75;;;;;;;-0.44;51.95;98655.31;5052331;28;20049;-61
2023/02/24 10:03:19;;;;;;;22.80;11.57;;;;;;;-0.24;51.64;98658.63;5055824;28;20040;-61
2023/02/24 10:05:57;;;;;;;25.88;11.95;;;;;;;-0.28;51.20;98628.16;5053745;28;20040;-63
2023/02/24 10:08:32;;;;;;;22.13;12.45;;;;;;;-0.07;50.55;98649.81;5053751;28;20057;-62
2023/02/24 10:11:27;;;;;;;24.05;11.60;;;;;;;-0.28;50.32;98638.66;5053804;28;20033;-60
2023/02/24 10:13:52;;;;;;;22.50;11.88;;;;;;;-0.37;51.50;98636.56;5053855;28;20364;-59
2023/02/24 10:16:25;;;;;;;23.30;12.38;;;;;;;-0.41;52.22;98642.94;5053803;28;20453;-61
2023/02/24 10:19:13;;;;;;;25.17;12.50;;;;;;;-0.35;52.84;98637.31;5049077;28;20030;-60
2023/02/24 10:21:48;;;;;;;22.13;12.18;;;;;;;-0.17;52.16;98636.31;5036456;28;20037;-57
2023/02/24 10:24:28;;;;;;;21.95;11.95;;;;;;;0.03;52.03;98628.22;5053867;28;20415;-61
2023/02/24 10:27:22;;;;;;;25.33;12.23;;;;;;;0.14;51.82;98626.69;5054568;28;20047;-60
2023/02/24 10:30:03;;;;;;;22.42;12.52;;;;;;;0.25;51.26;98622.59;5054447;28;20040;-59
2023/02/24 10:32:36;;;;;;;25.77;12.68;;;;;;;0.33;51.08;98616.88;5053625;28;20047;-60
2023/02/24 10:35:02;;;;;;;27.05;13.65;;;;;;;0.26;51.07;98619.03;5053904;28;20062;-61
2023/02/24 10:37:29;;;;;;;26.33;13.13;;;;;;;0.18;51.09;98614.22;5052952;28;20033;-60
2023/02/24 10:40:11;;;;;;;24.67;12.57;;;;;;;0.13;51.15;98611.81;5039700;28;20441;-61
2023/02/24 10:42:44;;;;;;;23.95;12.18;;;;;;;0.10;52.19;98604.09;5033679;28;20415;-62
2023/02/24 10:45:22;;;;;;;23.85;12.82;;;;;;;0.17;51.89;98614.28;5042066;28;20130;-57
2023/02/24 10:47:56;;;;;;;23.15;12.73;;;;;;;0.16;51.84;98600.28;5053929;28;20037;-58
2023/02/24 10:50:33;;;;;;;23.60;12.07;;;;;;;0.17;52.37;98595.84;5053804;28;20024;-61
2023/02/24 10:53:10;;;;;;;25.92;13.70;;;;;;;0.14;51.96;98603.00;5053187;28;20780;-59
2023/02/24 10:58:26;;;;;;;23.10;12.88;;;;;;;0.09;51.86;98589.25;5052935;28;20088;-61
2023/02/24 11:03:35;;;;;;;26.13;12.55;;;;;;;0.01;51.80;98593.25;5053643;28;20043;-62
2023/02/24 11:08:53;;;;;;;23.55;13.20;;;;;;;-0.18;52.80;98584.63;5053634;28;20021;-60
2023/02/24 11:11:28;;;;;;;23.15;12.93;;;;;;;-0.19;52.43;98575.03;5052601;28;20119;-64
2023/02/24 11:19:38;;;;;;;25.92;13.43;;;;;;;-0.20;52.61;98578.63;5039145;28;20375;-62
2023/02/24 11:22:07;;;;;;;23.58;12.95;;;;;;;-0.22;53.19;98582.25;5032824;28;20348;-61
2023/02/24 11:24:37;;;;;;;25.48;12.93;;;;;;;-0.26;52.92;98578.94;5033285;28;20025;-61
2023/02/24 11:27:03;;;;;;;27.65;12.98;;;;;;;-0.26;52.45;98567.59;5031320;28;20022;-61
2023/02/24 11:29:59;;;;;;;27.92;13.40;;;;;;;-0.16;52.83;98566.97;5032000;28;20029;-59
2023/02/24 11:32:28;;;;;;;25.50;13.67;;;;;;;-0.18;52.45;98565.34;5015866;28;20337;-62
2023/02/24 11:35:19;;;;;;;27.10;13.48;;;;;;;-0.13;52.28;98557.22;5032701;28;20033;-64
2023/02/24 11:38:08;;;;;;;29.65;14.00;;;;;;;-0.16;52.49;98552.97;5033243;28;20526;-61
2023/02/24 11:40:42;;;;;;;26.33;13.77;;;;;;;-0.26;51.92;98542.13;5022339;28;20103;-56
2023/02/24 11:43:07;;;;;;;28.73;14.38;;;;;;;-0.32;52.10;98545.09;5032338;28;20033;-59
2023/02/24 11:45:36;;;;;;;28.15;14.75;;;;;;;-0.27;52.58;98540.41;5032792;28;20040;-60
2023/02/24 11:48:13;;;;;;;27.48;12.88;;;;;;;-0.40;52.17;98521.03;5032985;28;20048;-62
2023/02/24 11:50:47;;;;;;;26.08;14.00;;;;;;;-0.20;52.20;98544.41;5033474;28;20041;-60
2023/02/24 11:53:17;;;;;;;27.67;14.45;;;;;;;-0.19;51.72;98535.59;5028160;28;20025;-58
2023/02/24 11:55:45;;;;;;;26.52;13.70;;;;;;;-0.25;51.73;98540.34;5032408;28;20108;-61
2023/02/24 11:58:26;;;;;;;25.80;13.38;;;;;;;-0.22;51.75;98535.75;5039086;28;20475;-60
2023/02/24 12:01:09;;;;;;;28.67;14.40;;;;;;;-0.22;52.12;98527.88;5049581;28;20033;-62
2023/02/24 12:03:48;;;;;;;27.67;13.65;;;;;;;-0.20;52.56;98523.38;5031454;28;20044;-57
2023/02/24 12:06:36;;;;;;;25.50;14.50;;;;;;;-0.08;52.42;98536.75;5032709;28;20175;-63
2023/02/24 12:09:18;;;;;;;26.13;14.15;;;;;;;-0.12;52.23;98528.19;5032869;28;20040;-58
2023/02/24 12:11:57;;;;;;;27.55;13.80;;;;;;;-0.18;52.06;98525.91;5031457;28;20029;-62
2023/02/24 12:14:40;;;;;;;30.42;14.18;;;;;;;-0.16;52.54;98522.25;5032381;28;20033;-61